Latest Coastal Weather Observations for Middle Percy Island

IDQ60701

Issued at 11:25 pm EST Thursday 27 November 2014 (issued every 10 minutes, with the page automatically refreshed every 10 minutes)

About coastal observations | Map of coastal stations | Coastal observations for QLD | Marine services | Other Formats
Station Details ID: 200001 Name: MIDDLE PERCY ISLAND Lat: -21.66 Lon: 150.27 Height: 208.7 m
Data from the previous 72 hours. | See also: Recent months at Middle Percy Island
Date/Time
EST
Temp

°C
Wind Pressure Rain
since 9am
mm
Weather Cloud Vis
km
Sea
Height
m
Swell
Dir
 
Speed
knots
Gust
knots
hPa Trend Height
m
Period
s
Dir
27/11:00pm 23.2 ENE 9 14 1013.5 - 0.0 - - - - - - -
27/10:30pm 23.4 ENE 9 13 1013.8 - 0.0 - - - - - - -
27/10:00pm 23.3 ENE 7 12 1013.9 - 0.0 - - - - - - -
27/09:30pm 23.3 E 7 12 1014.0 - 0.0 - - - - - - -
27/09:00pm 23.4 E 6 12 1013.9 - 0.0 - - - - - - -
27/08:30pm 23.4 E 7 13 1013.8 - 0.0 - - - - - - -
27/08:00pm 23.4 ENE 7 13 1013.5 - 0.0 - - - - - - -
27/07:30pm 23.5 ENE 7 12 1013.5 - 0.0 - - - - - - -
27/07:00pm 23.6 ENE 8 13 1013.3 - 0.0 - - - - - - -
27/06:30pm 23.9 E 7 13 1013.2 - 0.0 - - - - - - -
27/06:00pm 24.5 E 5 11 1013.1 - 0.0 - - - - - - -
27/05:30pm 24.6 ENE 7 11 1012.9 - 0.0 - - - - - - -
27/05:00pm 25.1 E 6 11 1012.8 - 0.0 - - - - - - -
27/04:30pm 25.2 ESE 6 12 1012.5 - 0.0 - - - - - - -
27/04:00pm 25.7 ESE 7 12 1012.5 - 0.0 - - - - - - -
27/03:30pm 26.3 SE 9 14 1012.3 - 0.0 - - - - - - -
27/03:00pm 25.9 ESE 8 13 1012.3 - 0.0 - - - - - - -
27/02:30pm 25.8 SE 8 11 1012.6 - 0.0 - - - - - - -
27/02:00pm 26.5 SE 9 12 1012.9 - 0.0 - - - - - - -
27/01:30pm 26.2 SE 9 13 1013.2 - 0.0 - - - - - - -
27/01:00pm 28.5 SE 10 15 1013.2 - 0.0 - - - - - - -
27/12:30pm 28.0 SE 10 14 1013.4 - 0.0 - - - - - - -
27/12:00pm 27.0 SE 9 14 1013.8 - 0.0 - - - - - - -
27/11:30am 26.4 SE 9 13 1014.1 - 0.0 - - - - - - -
27/11:00am 26.7 SE 10 14 1014.3 - 0.0 - - - - - - -
27/10:30am 26.4 SE 10 14 1014.5 - 0.0 - - - - - - -
27/10:00am 26.1 ESE 10 14 1014.8 - 0.0 - - - - - - -
27/09:30am 27.7 E 8 15 1014.9 - 0.0 - - - - - - -
27/09:00am 26.3 E 9 14 1014.9 - 0.4 Recent precip. - - - - - -
27/08:30am 26.1 E 7 12 1015.1 - 0.4 - - - - - - -
27/08:00am 24.9 SE 9 13 1015.3 - 0.2 - - - - - - -
27/07:30am 25.0 E 6 10 1015.2 - 0.2 - - - - - - -
27/07:00am 24.9 E 4 8 1015.0 - 0.2 - - - - - - -
27/06:30am 23.8 ENE 5 10 1014.6 - 0.2 - - - - - - -
27/06:00am 23.6 E 6 10 1014.3 - 0.2 - - - - - - -
27/05:30am 23.2 ENE 8 13 1013.9 - 0.2 - - - - - - -
27/05:00am 23.0 ENE 8 13 1013.8 - 0.2 - - - - - - -
27/04:30am 22.9 ENE 7 12 1013.5 - 0.2 - - - - - - -
27/04:00am 22.8 E 6 12 1013.3 - 0.2 - - - - - - -
27/03:30am 22.7 ENE 6 10 1013.4 - 0.2 - - - - - - -
27/03:00am 23.1 E 5 9 1013.4 - 0.0 - - - - - - -
27/02:30am 23.0 ESE 5 10 1013.4 - 0.0 - - - - - - -
27/02:00am 23.1 E 4 9 1013.5 - 0.0 - - - - - - -
27/01:30am 22.9 E 4 9 1013.6 - 0.0 - - - - - - -
27/01:00am 23.0 E 5 9 1013.8 - 0.0 - - - - - - -
27/12:30am 23.0 E 3 7 1014.0 - 0.0 - - - - - - -
27/12:00am 23.0 ENE 7 11 1014.2 - 0.0 - - - - - - -
 
Date/Time
EST
Temp

°C
Wind Pressure Rain
since 9am
mm
Weather Cloud Vis
km
Sea
Height
m
Swell
Dir
 
Speed
knots
Gust
knots
hPa Trend Height
m
Period
s
Dir
26/11:30pm 23.0 E 5 10 1014.5 - 0.0 - - - - - - -
26/11:00pm 23.0 E 5 9 1014.6 - 0.0 - - - - - - -
26/10:30pm 23.0 E 5 11 1014.9 - 0.0 - - - - - - -
26/10:00pm 23.1 ENE 7 11 1014.9 - 0.0 - - - - - - -
26/09:30pm 23.2 E 5 9 1014.6 - 0.0 - - - - - - -
26/09:00pm 23.3 ENE 7 12 1014.8 - 0.0 - - - - - - -
26/08:30pm 23.4 ENE 5 8 1014.6 - 0.0 - - - - - - -
26/08:00pm 23.4 ENE 7 12 1014.3 - 0.0 - - - - - - -
26/07:30pm 23.5 E 6 10 1014.0 - 0.0 - - - - - - -
26/07:00pm 23.6 E 7 11 1013.8 - 0.0 - - - - - - -
26/06:30pm 23.7 E 7 11 1013.8 - 0.0 - - - - - - -
26/06:00pm 24.2 ENE 8 13 1013.6 - 0.0 - - - - - - -
26/05:30pm 25.1 E 4 11 1013.5 - 0.0 - - - - - - -
26/05:00pm 25.1 ENE 8 13 1013.1 - 0.0 - - - - - - -
26/04:30pm 25.7 ENE 9 14 1012.9 - 0.0 - - - - - - -
26/04:00pm 26.3 ENE 8 13 1012.7 - 0.0 - - - - - - -
26/03:30pm 26.8 E 9 14 1012.9 - 0.0 - - - - - - -
26/03:00pm 27.6 E 7 12 1013.1 - 0.0 - - - - - - -
26/02:30pm 27.1 NE 8 15 1013.2 - 0.0 - - - - - - -
26/02:00pm 26.8 NE 8 15 1013.2 - 0.0 - - - - - - -
26/01:30pm 26.9 E 9 17 1013.6 - 0.0 - - - - - - -
26/01:00pm 28.0 ENE 8 14 1013.8 - 0.0 - - - - - - -
26/12:30pm 27.3 E 9 15 1014.0 - 0.0 - - - - - - -
26/12:00pm 25.9 ENE 11 16 1014.3 - 0.0 - - - - - - -
26/11:30am 26.7 ENE 10 17 1014.5 - 0.0 - - - - - - -
26/11:00am 25.9 E 9 20 1014.8 - 0.0 - - - - - - -
26/10:30am 26.5 E 9 17 1015.1 - 0.0 - - - - - - -
26/10:00am 26.2 E 8 15 1015.3 - 0.0 - - - - - - -
26/09:30am 26.8 E 7 13 1015.3 - 0.0 - - - - - - -
26/09:00am 25.9 E 6 10 1015.3 - 1.6 - - - - - - -
26/08:30am 25.4 E 6 12 1015.2 - 1.6 - - - - - - -
26/08:00am 25.9 E 7 14 1015.0 - 1.6 - - - - - - -
26/07:30am 25.2 ENE 7 15 1014.9 - 1.6 - - - - - - -
26/07:00am 24.9 ENE 7 13 1014.8 - 1.6 - - - - - - -
26/06:30am 24.4 ENE 9 16 1014.4 - 1.6 - - - - - - -
26/06:00am 23.9 ENE 7 12 1013.9 - 1.6 - - - - - - -
26/05:30am 23.5 ENE 6 10 1013.5 - 1.6 - - - - - - -
26/05:00am 23.4 ENE 5 8 1013.2 - 1.6 - - - - - - -
26/04:30am 23.4 ENE 6 8 1013.1 - 1.6 - - - - - - -
26/04:00am 23.4 ENE 6 9 1012.9 - 1.6 - - - - - - -
26/03:30am 23.5 NE 7 10 1012.5 - 1.6 - - - - - - -
26/03:00am 23.7 NE 8 13 1012.5 - 1.6 - - - - - - -
26/02:30am 23.6 NE 8 12 1012.5 - 1.6 - - - - - - -
26/02:00am 23.8 NE 9 14 1012.4 - 1.6 - - - - - - -
26/01:30am 23.8 NE 10 14 1012.6 - 1.6 - - - - - - -
26/01:00am 23.8 NE 11 15 1012.8 - 1.6 - - - - - - -
26/12:30am 23.9 NE 11 17 1013.1 - 1.6 - - - - - - -
26/12:00am 23.8 NE 10 16 1013.3 - 1.6 - - - - - - -
 
Date/Time
EST
Temp

°C
Wind Pressure Rain
since 9am
mm
Weather Cloud Vis
km
Sea
Height
m
Swell
Dir
 
Speed
knots
Gust
knots
hPa Trend Height
m
Period
s
Dir
25/11:30pm 23.9 NE 10 16 1013.7 - 1.6 - - - - - - -
25/11:00pm 23.9 NE 12 18 1013.9 - 1.6 - - - - - - -
25/10:30pm 24.0 NE 12 17 1014.2 - 1.6 - - - - - - -
25/10:00pm 24.1 NE 9 15 1014.6 - 1.6 - - - - - - -
25/09:30pm 24.1 NE 9 15 1014.8 - 1.6 - - - - - - -
25/09:00pm 24.2 ENE 4 7 1014.5 - 1.6 - - - - - - -
25/08:30pm 24.1 ENE 6 10 1014.2 - 1.6 - - - - - - -
25/08:00pm 24.0 ENE 6 10 1013.9 - 1.6 - - - - - - -
25/07:30pm 24.3 ENE 5 8 1013.6 - 1.6 - - - - - - -
25/07:00pm 24.2 ENE 6 9 1013.3 - 1.6 - - - - - - -
25/06:30pm 24.4 ENE 7 10 1012.9 - 1.6 - - - - - - -
25/06:00pm 24.6 ENE 7 9 1012.7 - 1.6 - - - - - - -
25/05:30pm 25.0 ENE 7 11 1012.4 - 1.6 - - - - - - -
25/05:00pm 25.4 ENE 9 13 1012.2 - 1.6 - - - - - - -
25/04:30pm 25.3 ENE 6 9 1012.3 - 1.6 - - - - - - -
25/04:00pm 25.9 ESE 6 11 1012.3 - 1.6 - - - - - - -
25/03:30pm 26.1 ESE 8 12 1012.1 - 1.6 - - - - - - -
25/03:00pm 25.3 ESE 10 13 1012.3 - 1.6 - - - - - - -
25/02:30pm 26.0 E 5 9 1012.5 - 1.6 - - - - - - -
25/02:00pm 25.8 ESE 11 15 1012.8 - 1.6 - - - - - - -
25/01:30pm 24.1 SE 8 11 1013.0 - 1.6 - - - - - - -
25/01:00pm 24.2 ESE 10 16 1013.4 - 1.6 - - - - - - -
25/12:30pm 28.4 SSE 10 16 1013.6 - 0.0 - - - - - - -
25/12:00pm 29.2 SE 10 15 1013.9 - 0.0 - - - - - - -
25/11:30am 27.6 SE 10 13 1014.2 - 0.0 - - - - - - -
25/11:00am 27.2 SE 10 15 1014.4 - 0.0 - - - - - - -
25/10:30am 27.0 ESE 10 14 1014.6 - 0.0 - - - - - - -
25/10:00am 26.8 SE 10 14 1014.9 - 0.0 - - - - - - -
25/09:30am 26.9 SE 9 13 1015.2 - 0.0 - - - - - - -
25/09:00am 25.9 SE 9 12 1015.1 - 0.2 - - - - - - -
25/08:30am 25.3 ESE 8 12 1015.2 - 0.2 - - - - - - -
25/08:00am 25.9 E 6 10 1014.9 - 0.2 - - - - - - -
25/07:30am 25.8 E 6 11 1014.8 - 0.2 - - - - - - -
25/07:00am 25.2 ENE 7 10 1014.5 - 0.2 - - - - - - -
25/06:30am 24.8 E 5 9 1014.4 - 0.2 - - - - - - -
25/06:00am 24.1 ENE 5 8 1014.2 - 0.2 - - - - - - -
25/05:30am 22.8 ENE 5 6 1013.9 - 0.2 - - - - - - -
25/05:00am 22.7 E 5 8 1013.7 - 0.2 - - - - - - -
25/04:30am 22.8 ENE 5 7 1013.5 - 0.2 - - - - - - -
25/04:00am 22.9 ENE 5 8 1013.4 - 0.2 - - - - - - -
25/03:30am 22.8 NE 7 11 1013.0 - 0.2 - - - - - - -
25/03:00am 22.9 NE 7 11 1012.8 - 0.2 - - - - - - -
25/02:30am 22.9 ENE 8 12 1013.0 - 0.2 - - - - - - -
25/02:00am 22.9 ENE 7 10 1013.2 - 0.2 - - - - - - -
25/01:30am 23.0 ENE 8 11 1013.4 - 0.2 - - - - - - -
25/01:00am 23.0 ENE 6 10 1013.7 - 0.2 - - - - - - -
25/12:30am 23.1 ENE 6 11 1014.2 - 0.2 - - - - - - -
25/12:00am 23.2 NE 6 9 1014.5 - 0.2 - - - - - - -
 
Date/Time
EST
Temp

°C
Wind Pressure Rain
since 9am
mm
Weather Cloud Vis
km
Sea
Height
m
Swell
Dir
 
Speed
knots
Gust
knots
hPa Trend Height
m
Period
s
Dir
24/11:30pm 23.3 NE 6 10 1014.8 - 0.2 - - - - - - -

Other Formats:

Comma delimited format used in spreadsheet applications
http://www.bom.gov.au/fwo/IDQ60701/IDQ60701.94372.axf

JavaScript Object Notation format (JSON) in row-major order
http://www.bom.gov.au/fwo/IDQ60701/IDQ60701.94372.json